createdAt,value
2022-09-03T00:00:54.734Z,100.00
2022-09-03T00:06:03.490Z,100.00
2022-09-03T00:11:14.456Z,100.00
2022-09-03T00:16:27.440Z,100.00
2022-09-03T00:21:36.863Z,100.00
2022-09-03T00:26:42.819Z,100.00
2022-09-03T00:32:00.581Z,100.00
2022-09-03T00:37:00.707Z,100.00
2022-09-03T00:42:15.384Z,100.00
2022-09-03T00:47:22.604Z,100.00
2022-09-03T00:52:36.859Z,100.00
2022-09-03T00:57:47.930Z,100.00
2022-09-03T01:02:58.834Z,99.58
2022-09-03T01:08:08.193Z,99.18
2022-09-03T01:13:13.138Z,98.78
2022-09-03T01:18:24.806Z,98.80
2022-09-03T01:23:57.346Z,99.51
2022-09-03T01:29:07.015Z,97.94
2022-09-03T01:34:16.705Z,96.88
2022-09-03T01:39:32.563Z,97.18
2022-09-03T01:44:58.042Z,97.54
2022-09-03T01:50:07.147Z,98.15
2022-09-03T01:55:25.071Z,98.28
2022-09-03T02:00:27.912Z,97.05
2022-09-03T02:05:29.790Z,96.32
2022-09-03T02:10:36.261Z,96.68
2022-09-03T02:15:49.687Z,96.13
2022-09-03T02:20:52.316Z,96.84
2022-09-03T02:25:56.149Z,96.02
2022-09-03T02:30:57.113Z,96.25
2022-09-03T02:36:09.636Z,95.84
2022-09-03T02:41:23.810Z,96.20
2022-09-03T02:46:33.821Z,96.52
2022-09-03T02:51:51.505Z,96.89
2022-09-03T02:56:52.880Z,96.70
2022-09-03T03:01:51.154Z,96.95
2022-09-03T03:07:25.823Z,96.53
2022-09-03T03:12:24.764Z,96.08
2022-09-03T03:17:27.942Z,95.90
2022-09-03T03:22:49.799Z,95.58
2022-09-03T03:28:03.978Z,94.88
2022-09-03T03:33:55.906Z,94.42
2022-09-03T04:45:11.445Z,89.79
2022-09-03T04:51:13.577Z,88.92
2022-09-03T04:57:55.142Z,91.17
2022-09-03T05:04:02.504Z,94.36
2022-09-03T05:10:36.521Z,94.14
2022-09-03T05:15:58.138Z,91.69
2022-09-03T05:27:34.760Z,93.17
2022-09-03T05:33:09.546Z,92.27
2022-09-03T05:38:39.576Z,90.83
2022-09-03T05:43:55.656Z,90.71
2022-09-03T05:54:48.183Z,90.31
2022-09-03T06:00:19.581Z,91.70
2022-09-03T06:05:44.778Z,91.25
2022-09-03T06:11:02.806Z,93.96
2022-09-03T06:16:41.224Z,93.88
2022-09-03T06:22:10.924Z,93.89
2022-09-03T06:27:59.526Z,92.78
2022-09-03T06:33:22.501Z,90.92
2022-09-03T06:38:42.368Z,88.86
2022-09-03T06:49:43.024Z,85.50
2022-09-03T06:54:56.554Z,85.32
2022-09-03T07:00:09.200Z,85.19
2022-09-03T07:11:13.460Z,83.14
2022-09-03T07:17:14.660Z,83.39
2022-09-03T07:35:45.553Z,81.75
2022-09-03T07:42:00.439Z,82.55
2022-09-03T07:54:46.819Z,82.41
2022-09-03T09:53:01.440Z,78.32
2022-09-03T12:09:51.036Z,75.89
2022-09-03T12:15:01.931Z,75.11
2022-09-03T12:20:15.391Z,74.31
2022-09-03T12:25:15.130Z,75.20
2022-09-03T12:30:17.813Z,74.70
2022-09-03T12:46:37.355Z,74.65
2022-09-03T12:52:03.157Z,73.74
2022-09-03T12:57:08.607Z,73.64
2022-09-03T13:02:20.698Z,73.10
2022-09-03T13:07:44.714Z,74.36
2022-09-03T13:13:29.382Z,74.35
2022-09-03T13:18:34.728Z,73.98
2022-09-03T13:23:48.122Z,73.38
2022-09-03T13:29:30.251Z,73.55
2022-09-03T13:35:18.525Z,74.80
2022-09-03T13:40:23.671Z,75.14
2022-09-03T13:45:32.488Z,74.21
2022-09-03T13:51:05.350Z,74.10
2022-09-03T13:56:17.281Z,73.88
2022-09-03T14:01:23.137Z,73.12
2022-09-03T14:06:51.338Z,73.96
2022-09-03T14:12:05.683Z,73.58
2022-09-03T14:17:15.238Z,74.79
2022-09-03T14:22:19.338Z,75.51
2022-09-03T14:27:34.371Z,75.55
2022-09-03T14:32:56.389Z,76.26
2022-09-03T14:38:45.962Z,76.66
2022-09-03T14:44:16.698Z,76.33
2022-09-03T14:49:32.823Z,76.03
2022-09-03T14:54:59.905Z,76.05
2022-09-03T15:00:05.386Z,77.08
2022-09-03T15:05:52.429Z,77.61
2022-09-03T15:10:56.786Z,78.64
2022-09-03T15:16:17.686Z,79.83
2022-09-03T15:21:26.602Z,80.41
2022-09-03T15:27:11.621Z,80.45
2022-09-03T15:32:47.020Z,80.44
2022-09-03T15:38:20.262Z,81.54
2022-09-03T15:43:24.233Z,82.46
2022-09-03T15:48:31.453Z,83.85
2022-09-03T15:54:05.593Z,84.47
2022-09-03T15:59:12.355Z,85.01
2022-09-03T16:04:22.334Z,85.17
2022-09-03T16:09:29.977Z,86.18
2022-09-03T16:14:38.914Z,87.75
2022-09-03T16:19:48.167Z,88.01
2022-09-03T16:24:51.075Z,88.39
2022-09-03T16:30:09.077Z,88.18
2022-09-03T16:35:22.879Z,88.58
2022-09-03T16:40:29.009Z,88.81
2022-09-03T16:45:35.333Z,86.75
2022-09-03T16:50:56.643Z,87.17
2022-09-03T16:56:13.440Z,87.32
2022-09-03T17:01:22.129Z,87.83
2022-09-03T17:06:35.523Z,87.56
2022-09-03T17:12:14.909Z,87.39
2022-09-03T17:17:32.614Z,86.37
2022-09-03T17:23:06.402Z,85.73
2022-09-03T17:28:25.082Z,85.56
2022-09-03T17:33:54.953Z,84.74
2022-09-03T17:39:24.017Z,83.52
2022-09-03T17:44:53.167Z,83.33
2022-09-03T17:49:55.738Z,82.62
2022-09-03T17:54:57.301Z,83.07
2022-09-03T18:00:26.827Z,84.01
2022-09-03T18:05:44.432Z,83.86
2022-09-03T18:10:50.302Z,83.39
2022-09-03T18:15:53.700Z,83.32
2022-09-03T18:21:31.776Z,83.27
2022-09-03T18:26:55.361Z,82.45
2022-09-03T18:32:10.611Z,82.81
2022-09-03T18:37:26.884Z,80.92
2022-09-03T18:42:56.075Z,80.87
2022-09-03T18:48:22.349Z,80.32
2022-09-03T18:53:51.245Z,80.30
2022-09-03T18:59:25.236Z,80.41
2022-09-03T19:04:54.089Z,80.05
2022-09-03T19:10:20.084Z,79.64
2022-09-03T19:15:41.906Z,78.25
2022-09-03T19:21:16.565Z,77.91
2022-09-03T19:26:41.951Z,77.79
2022-09-03T19:32:03.268Z,78.22
2022-09-03T19:37:26.548Z,78.39
2022-09-03T19:42:58.517Z,78.61
2022-09-03T19:48:28.799Z,78.57
2022-09-03T19:53:45.895Z,78.64
2022-09-03T19:59:07.975Z,78.21
2022-09-03T20:04:30.921Z,78.27
2022-09-03T20:09:50.284Z,79.30
2022-09-03T20:14:48.622Z,80.22
2022-09-03T20:20:00.091Z,80.36
2022-09-03T20:25:20.701Z,79.57
2022-09-03T20:30:20.546Z,79.16
2022-09-03T20:35:33.252Z,79.50
2022-09-03T20:40:42.728Z,80.40
2022-09-03T20:45:58.422Z,81.06
2022-09-03T20:51:07.371Z,80.98
2022-09-03T20:56:16.071Z,81.15
2022-09-03T21:01:22.843Z,80.66
2022-09-03T21:06:30.814Z,79.81
2022-09-03T21:11:35.434Z,78.70
2022-09-03T21:16:44.121Z,78.97
2022-09-03T21:21:54.117Z,79.32
2022-09-03T21:26:56.968Z,79.34
2022-09-03T21:32:03.871Z,79.92
2022-09-03T21:37:04.158Z,80.21
2022-09-03T21:42:06.500Z,80.36
2022-09-03T21:47:08.925Z,80.62
2022-09-03T21:52:11.937Z,80.75
2022-09-03T21:57:22.275Z,80.30
2022-09-03T22:02:26.649Z,80.62
2022-09-03T22:07:37.400Z,81.16
2022-09-03T22:12:42.518Z,81.33
2022-09-03T22:17:48.018Z,81.16
2022-09-03T22:22:55.914Z,80.83
2022-09-03T22:28:00.975Z,80.85
2022-09-03T22:33:06.781Z,81.56
2022-09-03T22:38:26.348Z,81.50
2022-09-03T22:43:38.993Z,80.72
2022-09-03T22:49:11.327Z,80.14
2022-09-03T22:54:24.284Z,80.54
2022-09-03T22:59:28.150Z,81.07
2022-09-03T23:04:30.019Z,81.50
2022-09-03T23:09:37.798Z,81.74
2022-09-03T23:14:48.153Z,81.76
2022-09-03T23:19:49.741Z,82.50
2022-09-03T23:24:54.266Z,82.01
2022-09-03T23:29:57.211Z,82.06
2022-09-03T23:34:55.507Z,81.52
2022-09-03T23:40:13.469Z,81.27
2022-09-03T23:45:21.669Z,80.82
2022-09-03T23:50:28.988Z,81.44
2022-09-03T23:55:41.782Z,82.32
